sensor_id;sensor_type;location;lat;lon;timestamp;pressure;altitude;pressure_sealevel;temperature;humidity
70589;BME280;58152;49.202;18.744;2023-12-14T00:01:26;95978.16;;;3.25;83.67
70589;BME280;58152;49.202;18.744;2023-12-14T00:03:52;95974.75;;;3.24;83.44
70589;BME280;58152;49.202;18.744;2023-12-14T00:06:17;95981.69;;;3.24;83.13
70589;BME280;58152;49.202;18.744;2023-12-14T00:08:42;95983.44;;;3.23;83.09
70589;BME280;58152;49.202;18.744;2023-12-14T00:11:10;95990.28;;;3.24;83.32
70589;BME280;58152;49.202;18.744;2023-12-14T00:13:35;95983.34;;;3.25;83.28
70589;BME280;58152;49.202;18.744;2023-12-14T00:16:01;95991.13;;;3.25;83.19
70589;BME280;58152;49.202;18.744;2023-12-14T00:18:27;95994.59;;;3.25;83.50
70589;BME280;58152;49.202;18.744;2023-12-14T00:20:52;96000.63;;;3.26;83.29
70589;BME280;58152;49.202;18.744;2023-12-14T00:23:19;96005.81;;;3.26;83.62
70589;BME280;58152;49.202;18.744;2023-12-14T00:25:45;96007.59;;;3.24;83.76
70589;BME280;58152;49.202;18.744;2023-12-14T00:28:10;96004.22;;;3.22;83.46
70589;BME280;58152;49.202;18.744;2023-12-14T00:30:36;96015.44;;;3.22;83.42
70589;BME280;58152;49.202;18.744;2023-12-14T00:33:01;96005.16;;;3.21;83.72
70589;BME280;58152;49.202;18.744;2023-12-14T00:35:27;96010.31;;;3.21;83.88
70589;BME280;58152;49.202;18.744;2023-12-14T00:37:52;96008.50;;;3.23;83.71
70589;BME280;58152;49.202;18.744;2023-12-14T00:40:18;96011.09;;;3.23;84.03
70589;BME280;58152;49.202;18.744;2023-12-14T00:42:43;96024.00;;;3.24;83.42
70589;BME280;58152;49.202;18.744;2023-12-14T00:45:09;96030.09;;;3.23;83.78
70589;BME280;58152;49.202;18.744;2023-12-14T00:47:35;96037.00;;;3.23;83.59
70589;BME280;58152;49.202;18.744;2023-12-14T00:50:00;96034.34;;;3.24;83.81
70589;BME280;58152;49.202;18.744;2023-12-14T00:52:26;96034.50;;;3.21;83.92
70589;BME280;58152;49.202;18.744;2023-12-14T00:54:51;96031.94;;;3.20;83.81
70589;BME280;58152;49.202;18.744;2023-12-14T00:57:17;96033.69;;;3.19;83.76
70589;BME280;58152;49.202;18.744;2023-12-14T00:59:43;96036.28;;;3.19;84.00
70589;BME280;58152;49.202;18.744;2023-12-14T01:02:09;96029.47;;;3.17;83.58
70589;BME280;58152;49.202;18.744;2023-12-14T01:04:34;96032.06;;;3.17;83.90
70589;BME280;58152;49.202;18.744;2023-12-14T01:07:00;96028.56;;;3.18;83.54
70589;BME280;58152;49.202;18.744;2023-12-14T01:09:25;96030.34;;;3.16;83.70
70589;BME280;58152;49.202;18.744;2023-12-14T01:11:51;96044.13;;;3.18;83.76
70589;BME280;58152;49.202;18.744;2023-12-14T01:14:16;96045.03;;;3.17;83.74
70589;BME280;58152;49.202;18.744;2023-12-14T01:16:41;96039.00;;;3.16;83.71
70589;BME280;58152;49.202;18.744;2023-12-14T01:19:07;96045.03;;;3.17;83.66
70589;BME280;58152;49.202;18.744;2023-12-14T01:21:33;96039.03;;;3.15;83.51
70589;BME280;58152;49.202;18.744;2023-12-14T01:23:58;96036.41;;;3.16;83.50
70589;BME280;58152;49.202;18.744;2023-12-14T01:26:25;96038.09;;;3.17;83.46
70589;BME280;58152;49.202;18.744;2023-12-14T01:28:50;96032.91;;;3.17;83.62
70589;BME280;58152;49.202;18.744;2023-12-14T01:31:16;96035.59;;;3.14;83.80
70589;BME280;58152;49.202;18.744;2023-12-14T01:33:41;96038.19;;;3.14;83.59
70589;BME280;58152;49.202;18.744;2023-12-14T01:36:07;96034.84;;;3.12;83.48
70589;BME280;58152;49.202;18.744;2023-12-14T01:38:33;96042.59;;;3.12;83.28
70589;BME280;58152;49.202;18.744;2023-12-14T01:40:58;96050.38;;;3.12;84.00
70589;BME280;58152;49.202;18.744;2023-12-14T01:43:24;96047.78;;;3.12;83.62
70589;BME280;58152;49.202;18.744;2023-12-14T01:45:49;96046.03;;;3.13;83.83
70589;BME280;58152;49.202;18.744;2023-12-14T01:48:15;96043.50;;;3.11;83.14
70589;BME280;58152;49.202;18.744;2023-12-14T01:50:40;96034.88;;;3.11;83.80
70589;BME280;58152;49.202;18.744;2023-12-14T01:53:06;96034.00;;;3.12;83.51
70589;BME280;58152;49.202;18.744;2023-12-14T01:55:31;96037.34;;;3.14;83.70
70589;BME280;58152;49.202;18.744;2023-12-14T01:57:56;96037.34;;;3.14;83.81
70589;BME280;58152;49.202;18.744;2023-12-14T02:00:39;96039.94;;;3.14;83.66
70589;BME280;58152;49.202;18.744;2023-12-14T02:03:06;96033.94;;;3.13;83.52
70589;BME280;58152;49.202;18.744;2023-12-14T02:05:32;96033.03;;;3.14;83.49
70589;BME280;58152;49.202;18.744;2023-12-14T02:07:57;96026.16;;;3.13;83.91
70589;BME280;58152;49.202;18.744;2023-12-14T02:10:23;96033.09;;;3.13;83.65
70589;BME280;58152;49.202;18.744;2023-12-14T02:12:49;96035.69;;;3.13;83.41
70589;BME280;58152;49.202;18.744;2023-12-14T02:15:14;96040.00;;;3.12;83.33
70589;BME280;58152;49.202;18.744;2023-12-14T02:17:40;96039.94;;;3.14;83.73
70589;BME280;58152;49.202;18.744;2023-12-14T02:20:05;96045.13;;;3.14;83.54
70589;BME280;58152;49.202;18.744;2023-12-14T02:25:16;96053.75;;;3.14;83.59
70589;BME280;58152;49.202;18.744;2023-12-14T02:27:41;96055.44;;;3.15;83.95
70589;BME280;58152;49.202;18.744;2023-12-14T02:30:07;96056.41;;;3.13;84.13
70589;BME280;58152;49.202;18.744;2023-12-14T02:32:32;96057.19;;;3.15;83.67
70589;BME280;58152;49.202;18.744;2023-12-14T02:34:58;96060.63;;;3.15;83.76
70589;BME280;58152;49.202;18.744;2023-12-14T02:37:23;96066.59;;;3.17;83.47
70589;BME280;58152;49.202;18.744;2023-12-14T02:39:49;96060.59;;;3.17;84.08
70589;BME280;58152;49.202;18.744;2023-12-14T02:42:14;96061.53;;;3.14;83.55
70589;BME280;58152;49.202;18.744;2023-12-14T02:44:39;96066.72;;;3.14;83.66
70589;BME280;58152;49.202;18.744;2023-12-14T02:47:05;96071.81;;;3.16;83.71
70589;BME280;58152;49.202;18.744;2023-12-14T02:49:30;96075.31;;;3.15;83.64
70589;BME280;58152;49.202;18.744;2023-12-14T02:51:55;96069.31;;;3.14;83.73
70589;BME280;58152;49.202;18.744;2023-12-14T02:54:21;96078.75;;;3.15;83.77
70589;BME280;58152;49.202;18.744;2023-12-14T02:56:46;96080.50;;;3.15;83.61
70589;BME280;58152;49.202;18.744;2023-12-14T02:59:12;96086.66;;;3.12;83.46
70589;BME280;58152;49.202;18.744;2023-12-14T03:01:37;96096.19;;;3.12;83.20
70589;BME280;58152;49.202;18.744;2023-12-14T03:04:03;96094.59;;;3.08;83.06
70589;BME280;58152;49.202;18.744;2023-12-14T03:06:28;96095.56;;;3.05;83.65
70589;BME280;58152;49.202;18.744;2023-12-14T03:08:53;96101.53;;;3.07;83.71
70589;BME280;58152;49.202;18.744;2023-12-14T03:11:22;96104.13;;;3.07;83.73
70589;BME280;58152;49.202;18.744;2023-12-14T03:13:51;96103.25;;;3.06;83.79
70589;BME280;58152;49.202;18.744;2023-12-14T03:16:16;96105.75;;;3.10;83.63
70589;BME280;58152;49.202;18.744;2023-12-14T03:18:42;96109.19;;;3.10;83.81
70589;BME280;58152;49.202;18.744;2023-12-14T03:21:09;96106.59;;;3.10;83.98
70589;BME280;58152;49.202;18.744;2023-12-14T03:23:34;96122.13;;;3.10;83.47
70589;BME280;58152;49.202;18.744;2023-12-14T03:25:59;96124.72;;;3.10;83.49
70589;BME280;58152;49.202;18.744;2023-12-14T03:28:26;96122.97;;;3.11;83.57
70589;BME280;58152;49.202;18.744;2023-12-14T03:30:55;96126.41;;;3.11;83.62
70589;BME280;58152;49.202;18.744;2023-12-14T03:33:20;96124.72;;;3.10;83.35
70589;BME280;58152;49.202;18.744;2023-12-14T03:35:47;96122.94;;;3.12;83.61
70589;BME280;58152;49.202;18.744;2023-12-14T03:38:13;96126.41;;;3.11;83.82
70589;BME280;58152;49.202;18.744;2023-12-14T03:40:39;96137.66;;;3.12;83.60
70589;BME280;58152;49.202;18.744;2023-12-14T03:43:04;96135.94;;;3.11;83.89
70589;BME280;58152;49.202;18.744;2023-12-14T03:45:32;96135.94;;;3.11;83.80
70589;BME280;58152;49.202;18.744;2023-12-14T03:47:58;96139.38;;;3.11;83.71
70589;BME280;58152;49.202;18.744;2023-12-14T03:50:23;96136.78;;;3.11;83.87
70589;BME280;58152;49.202;18.744;2023-12-14T03:52:49;96148.03;;;3.12;83.88
70589;BME280;58152;49.202;18.744;2023-12-14T03:55:14;96148.06;;;3.10;83.83
70589;BME280;58152;49.202;18.744;2023-12-14T03:57:41;96154.16;;;3.09;83.85
70589;BME280;58152;49.202;18.744;2023-12-14T04:00:09;96153.31;;;3.09;83.79
70589;BME280;58152;49.202;18.744;2023-12-14T04:02:35;96159.34;;;3.09;84.06
70589;BME280;58152;49.202;18.744;2023-12-14T04:05:00;96158.50;;;3.09;83.83
70589;BME280;58152;49.202;18.744;2023-12-14T04:07:26;96161.09;;;3.09;84.04
70589;BME280;58152;49.202;18.744;2023-12-14T04:09:54;96166.25;;;3.09;84.16
70589;BME280;58152;49.202;18.744;2023-12-14T04:12:21;96159.44;;;3.06;83.91
70589;BME280;58152;49.202;18.744;2023-12-14T04:14:46;96166.31;;;3.07;83.82
70589;BME280;58152;49.202;18.744;2023-12-14T04:17:12;96169.75;;;3.08;83.84
70589;BME280;58152;49.202;18.744;2023-12-14T04:19:41;96174.13;;;3.05;84.23
70589;BME280;58152;49.202;18.744;2023-12-14T04:22:07;96183.59;;;3.06;83.71
70589;BME280;58152;49.202;18.744;2023-12-14T04:24:33;96175.81;;;3.06;83.73
70589;BME280;58152;49.202;18.744;2023-12-14T04:26:58;96187.09;;;3.05;83.75
70589;BME280;58152;49.202;18.744;2023-12-14T04:29:24;96188.00;;;3.04;83.41
70589;BME280;58152;49.202;18.744;2023-12-14T04:31:49;96188.00;;;3.04;83.85
70589;BME280;58152;49.202;18.744;2023-12-14T04:34:14;96188.00;;;3.04;83.69
70589;BME280;58152;49.202;18.744;2023-12-14T04:36:42;96193.09;;;3.08;84.18
70589;BME280;58152;49.202;18.744;2023-12-14T04:39:07;96196.56;;;3.06;83.94
70589;BME280;58152;49.202;18.744;2023-12-14T04:41:33;96196.56;;;3.06;84.01
70589;BME280;58152;49.202;18.744;2023-12-14T04:43:58;96193.94;;;3.08;83.87
70589;BME280;58152;49.202;18.744;2023-12-14T04:46:23;96204.22;;;3.10;84.19
70589;BME280;58152;49.202;18.744;2023-12-14T04:48:49;96197.44;;;3.07;84.00
70589;BME280;58152;49.202;18.744;2023-12-14T04:51:14;96205.97;;;3.09;83.98
70589;BME280;58152;49.202;18.744;2023-12-14T04:53:40;96214.59;;;3.10;84.07
70589;BME280;58152;49.202;18.744;2023-12-14T04:56:09;96210.31;;;3.09;83.90
70589;BME280;58152;49.202;18.744;2023-12-14T04:58:35;96219.84;;;3.08;83.77
70589;BME280;58152;49.202;18.744;2023-12-14T05:01:00;96218.88;;;3.11;83.93
70589;BME280;58152;49.202;18.744;2023-12-14T05:03:26;96224.19;;;3.08;84.03
70589;BME280;58152;49.202;18.744;2023-12-14T05:05:52;96225.03;;;3.08;83.77
70589;BME280;58152;49.202;18.744;2023-12-14T05:08:17;96235.41;;;3.08;83.95
70589;BME280;58152;49.202;18.744;2023-12-14T05:10:42;96244.91;;;3.08;83.58
70589;BME280;58152;49.202;18.744;2023-12-14T05:13:08;96233.72;;;3.07;84.02
70589;BME280;58152;49.202;18.744;2023-12-14T05:15:33;96248.38;;;3.06;83.83
70589;BME280;58152;49.202;18.744;2023-12-14T05:17:59;96255.22;;;3.09;84.08
70589;BME280;58152;49.202;18.744;2023-12-14T05:20:24;96252.69;;;3.08;84.13
70589;BME280;58152;49.202;18.744;2023-12-14T05:22:50;96263.06;;;3.08;84.16
70589;BME280;58152;49.202;18.744;2023-12-14T05:25:15;96254.44;;;3.07;83.62
70589;BME280;58152;49.202;18.744;2023-12-14T05:27:40;96253.56;;;3.06;84.04
70589;BME280;58152;49.202;18.744;2023-12-14T05:30:06;96264.81;;;3.07;84.09
70589;BME280;58152;49.202;18.744;2023-12-14T05:32:32;96268.28;;;3.06;84.37
70589;BME280;58152;49.202;18.744;2023-12-14T05:34:57;96269.09;;;3.08;84.04
70589;BME280;58152;49.202;18.744;2023-12-14T05:37:24;96276.00;;;3.08;84.13
70589;BME280;58152;49.202;18.744;2023-12-14T05:39:50;96280.34;;;3.07;83.87
70589;BME280;58152;49.202;18.744;2023-12-14T05:42:16;96282.94;;;3.07;84.12
70589;BME280;58152;49.202;18.744;2023-12-14T05:44:44;96281.19;;;3.08;84.21
70589;BME280;58152;49.202;18.744;2023-12-14T05:47:12;96285.53;;;3.07;83.98
70589;BME280;58152;49.202;18.744;2023-12-14T05:49:41;96292.34;;;3.10;84.49
70589;BME280;58152;49.202;18.744;2023-12-14T05:52:08;96286.38;;;3.08;84.09
70589;BME280;58152;49.202;18.744;2023-12-14T05:54:35;96290.66;;;3.09;83.93
70589;BME280;58152;49.202;18.744;2023-12-14T05:57:01;96290.66;;;3.09;84.07
70589;BME280;58152;49.202;18.744;2023-12-14T05:59:26;96297.53;;;3.10;84.02
70589;BME280;58152;49.202;18.744;2023-12-14T06:01:56;96306.16;;;3.10;84.45
70589;BME280;58152;49.202;18.744;2023-12-14T06:04:22;96311.31;;;3.12;84.32
70589;BME280;58152;49.202;18.744;2023-12-14T06:06:47;96310.50;;;3.10;84.27
70589;BME280;58152;49.202;18.744;2023-12-14T06:09:13;96314.78;;;3.11;84.53
70589;BME280;58152;49.202;18.744;2023-12-14T06:11:38;96328.56;;;3.11;84.21
70589;BME280;58152;49.202;18.744;2023-12-14T06:14:07;96332.06;;;3.10;83.97
70589;BME280;58152;49.202;18.744;2023-12-14T06:16:35;96332.97;;;3.09;83.94
70589;BME280;58152;49.202;18.744;2023-12-14T06:19:00;96351.91;;;3.11;84.12
70589;BME280;58152;49.202;18.744;2023-12-14T06:21:26;96345.03;;;3.10;84.27
70589;BME280;58152;49.202;18.744;2023-12-14T06:23:54;96342.44;;;3.10;84.49
70589;BME280;58152;49.202;18.744;2023-12-14T06:26:22;96346.63;;;3.14;84.61
70589;BME280;58152;49.202;18.744;2023-12-14T06:28:48;96354.16;;;3.22;84.29
70589;BME280;58152;49.202;18.744;2023-12-14T06:31:14;96354.16;;;3.22;84.34
70589;BME280;58152;49.202;18.744;2023-12-14T06:33:40;96361.94;;;3.22;84.13
70589;BME280;58152;49.202;18.744;2023-12-14T06:36:09;96365.47;;;3.19;84.11
70589;BME280;58152;49.202;18.744;2023-12-14T06:38:38;96366.44;;;3.17;83.85
70589;BME280;58152;49.202;18.744;2023-12-14T06:41:04;96369.88;;;3.17;84.13
70589;BME280;58152;49.202;18.744;2023-12-14T06:43:29;96374.22;;;3.17;84.13
70589;BME280;58152;49.202;18.744;2023-12-14T06:45:54;96376.03;;;3.13;84.34
70589;BME280;58152;49.202;18.744;2023-12-14T06:48:20;96371.69;;;3.14;84.29
70589;BME280;58152;49.202;18.744;2023-12-14T06:50:45;96380.31;;;3.14;84.24
70589;BME280;58152;49.202;18.744;2023-12-14T06:53:11;96376.09;;;3.12;83.72
70589;BME280;58152;49.202;18.744;2023-12-14T06:55:36;96378.69;;;3.12;83.99
70589;BME280;58152;49.202;18.744;2023-12-14T06:58:02;96401.97;;;3.13;83.95
70589;BME280;58152;49.202;18.744;2023-12-14T07:00:28;96402.03;;;3.12;84.11
70589;BME280;58152;49.202;18.744;2023-12-14T07:03:12;96395.13;;;3.11;84.14
70589;BME280;58152;49.202;18.744;2023-12-14T07:05:38;96399.50;;;3.09;84.35
70589;BME280;58152;49.202;18.744;2023-12-14T07:08:04;96402.03;;;3.12;84.52
70589;BME280;58152;49.202;18.744;2023-12-14T07:10:29;96402.88;;;3.11;84.38
70589;BME280;58152;49.202;18.744;2023-12-14T07:12:55;96408.00;;;3.14;84.44
70589;BME280;58152;49.202;18.744;2023-12-14T07:15:20;96408.88;;;3.13;83.92
70589;BME280;58152;49.202;18.744;2023-12-14T07:17:45;96412.28;;;3.15;84.22
70589;BME280;58152;49.202;18.744;2023-12-14T07:20:11;96415.75;;;3.14;84.09
70589;BME280;58152;49.202;18.744;2023-12-14T07:22:37;96417.44;;;3.15;84.09
70589;BME280;58152;49.202;18.744;2023-12-14T07:25:03;96414.88;;;3.15;84.05
70589;BME280;58152;49.202;18.744;2023-12-14T07:27:47;96419.25;;;3.13;84.12
70589;BME280;58152;49.202;18.744;2023-12-14T07:30:21;96431.25;;;3.15;84.33
70589;BME280;58152;49.202;18.744;2023-12-14T07:33:04;96436.41;;;3.17;83.93
70589;BME280;58152;49.202;18.744;2023-12-14T07:35:30;96439.09;;;3.14;84.19
70589;BME280;58152;49.202;18.744;2023-12-14T07:38:08;96449.38;;;3.17;84.47
70589;BME280;58152;49.202;18.744;2023-12-14T07:40:33;96448.47;;;3.18;84.27
70589;BME280;58152;49.202;18.744;2023-12-14T07:42:59;96440.91;;;3.12;84.03
70589;BME280;58152;49.202;18.744;2023-12-14T07:45:24;96442.59;;;3.13;84.72
70589;BME280;58152;49.202;18.744;2023-12-14T07:47:51;96452.00;;;3.15;84.51
70589;BME280;58152;49.202;18.744;2023-12-14T07:50:17;96453.75;;;3.15;84.24
70589;BME280;58152;49.202;18.744;2023-12-14T07:52:42;96452.81;;;3.17;84.48
70589;BME280;58152;49.202;18.744;2023-12-14T07:55:08;96456.34;;;3.15;84.42
70589;BME280;58152;49.202;18.744;2023-12-14T07:57:33;96455.50;;;3.14;84.24
70589;BME280;58152;49.202;18.744;2023-12-14T07:59:59;96461.50;;;3.16;84.31
70589;BME280;58152;49.202;18.744;2023-12-14T08:02:24;96464.13;;;3.15;84.47
70589;BME280;58152;49.202;18.744;2023-12-14T08:04:50;96469.28;;;3.16;84.40
70589;BME280;58152;49.202;18.744;2023-12-14T08:07:18;96471.88;;;3.16;84.19
70589;BME280;58152;49.202;18.744;2023-12-14T08:09:44;96476.16;;;3.17;84.73
70589;BME280;58152;49.202;18.744;2023-12-14T08:12:12;96472.72;;;3.17;84.71
70589;BME280;58152;49.202;18.744;2023-12-14T08:14:58;96483.78;;;3.22;84.73
70589;BME280;58152;49.202;18.744;2023-12-14T08:17:26;96489.91;;;3.19;84.66
70589;BME280;58152;49.202;18.744;2023-12-14T08:20:25;96487.97;;;3.26;84.70
70589;BME280;58152;49.202;18.744;2023-12-14T08:23:17;96492.22;;;3.28;84.55
70589;BME280;58152;49.202;18.744;2023-12-14T08:26:03;96505.09;;;3.31;84.79
70589;BME280;58152;49.202;18.744;2023-12-14T08:28:56;96510.34;;;3.30;84.22
70589;BME280;58152;49.202;18.744;2023-12-14T08:31:21;96513.00;;;3.27;84.43
70589;BME280;58152;49.202;18.744;2023-12-14T08:33:56;96512.06;;;3.29;84.19
70589;BME280;58152;49.202;18.744;2023-12-14T08:36:23;96512.16;;;3.26;84.25
70589;BME280;58152;49.202;18.744;2023-12-14T08:38:48;96529.31;;;3.30;84.09
70589;BME280;58152;49.202;18.744;2023-12-14T08:41:15;96536.16;;;3.33;84.38
70589;BME280;58152;49.202;18.744;2023-12-14T08:43:41;96537.06;;;3.32;84.36
70589;BME280;58152;49.202;18.744;2023-12-14T08:46:06;96553.41;;;3.34;84.27
70589;BME280;58152;49.202;18.744;2023-12-14T08:48:38;96556.88;;;3.33;84.32
70589;BME280;58152;49.202;18.744;2023-12-14T08:51:06;96550.91;;;3.31;84.39
70589;BME280;58152;49.202;18.744;2023-12-14T08:53:31;96553.41;;;3.34;84.35
70589;BME280;58152;49.202;18.744;2023-12-14T08:55:57;96553.44;;;3.33;84.38
70589;BME280;58152;49.202;18.744;2023-12-14T08:58:28;96560.31;;;3.35;84.64
70589;BME280;58152;49.202;18.744;2023-12-14T09:01:00;96561.19;;;3.34;84.41
70589;BME280;58152;49.202;18.744;2023-12-14T09:03:26;96558.59;;;3.34;84.36
70589;BME280;58152;49.202;18.744;2023-12-14T09:06:07;96563.75;;;3.36;84.17
70589;BME280;58152;49.202;18.744;2023-12-14T09:08:32;96570.56;;;3.38;84.33
70589;BME280;58152;49.202;18.744;2023-12-14T09:10:57;96567.09;;;3.39;84.25
70589;BME280;58152;49.202;18.744;2023-12-14T09:13:23;96573.97;;;3.40;84.48
70589;BME280;58152;49.202;18.744;2023-12-14T09:15:49;96572.22;;;3.41;84.29
70589;BME280;58152;49.202;18.744;2023-12-14T09:18:37;96574.88;;;3.39;84.33
70589;BME280;58152;49.202;18.744;2023-12-14T09:21:04;96583.41;;;3.43;84.63
70589;BME280;58152;49.202;18.744;2023-12-14T09:23:29;96583.31;;;3.46;84.40
70589;BME280;58152;49.202;18.744;2023-12-14T09:25:55;96575.59;;;3.44;84.28
70589;BME280;58152;49.202;18.744;2023-12-14T09:28:21;96581.63;;;3.45;84.63
70589;BME280;58152;49.202;18.744;2023-12-14T09:30:47;96583.31;;;3.46;84.35
70589;BME280;58152;49.202;18.744;2023-12-14T09:33:13;96595.38;;;3.47;84.41
70589;BME280;58152;49.202;18.744;2023-12-14T09:35:38;96597.06;;;3.48;84.26
70589;BME280;58152;49.202;18.744;2023-12-14T09:38:05;96603.13;;;3.48;84.59
70589;BME280;58152;49.202;18.744;2023-12-14T09:40:31;96611.78;;;3.49;84.45
70589;BME280;58152;49.202;18.744;2023-12-14T09:42:57;96606.56;;;3.49;84.69
70589;BME280;58152;49.202;18.744;2023-12-14T09:45:29;96615.22;;;3.49;84.51
70589;BME280;58152;49.202;18.744;2023-12-14T09:48:00;96615.22;;;3.49;84.71
70589;BME280;58152;49.202;18.744;2023-12-14T09:50:25;96617.81;;;3.49;84.79
70589;BME280;58152;49.202;18.744;2023-12-14T09:52:51;96624.59;;;3.53;84.59
70589;BME280;58152;49.202;18.744;2023-12-14T09:55:17;96617.69;;;3.52;84.60
70589;BME280;58152;49.202;18.744;2023-12-14T09:57:43;96622.84;;;3.54;84.43
70589;BME280;58152;49.202;18.744;2023-12-14T10:00:08;96630.59;;;3.55;84.77
70589;BME280;58152;49.202;18.744;2023-12-14T10:02:39;96628.00;;;3.55;84.65
70589;BME280;58152;49.202;18.744;2023-12-14T10:05:09;96634.03;;;3.56;84.56
70589;BME280;58152;49.202;18.744;2023-12-14T10:07:41;96637.47;;;3.56;84.78
70589;BME280;58152;49.202;18.744;2023-12-14T10:10:11;96634.84;;;3.58;84.58
70589;BME280;58152;49.202;18.744;2023-12-14T10:12:51;96639.91;;;3.61;85.09
70589;BME280;58152;49.202;18.744;2023-12-14T10:15:18;96641.66;;;3.62;84.58
70589;BME280;58152;49.202;18.744;2023-12-14T10:17:44;96642.50;;;3.63;84.27
70589;BME280;58152;49.202;18.744;2023-12-14T10:20:21;96648.47;;;3.65;84.22
70589;BME280;58152;49.202;18.744;2023-12-14T10:22:49;96647.63;;;3.64;84.43
70589;BME280;58152;49.202;18.744;2023-12-14T10:25:15;96648.38;;;3.68;84.71
70589;BME280;58152;49.202;18.744;2023-12-14T10:27:40;96654.38;;;3.70;84.57
70589;BME280;58152;49.202;18.744;2023-12-14T10:30:12;96653.47;;;3.71;84.85
70589;BME280;58152;49.202;18.744;2023-12-14T10:32:40;96656.88;;;3.73;84.29
70589;BME280;58152;49.202;18.744;2023-12-14T10:35:07;96654.25;;;3.74;84.20
70589;BME280;58152;49.202;18.744;2023-12-14T10:37:37;96654.22;;;3.76;84.52
70589;BME280;58152;49.202;18.744;2023-12-14T10:40:09;96649.75;;;3.79;84.22
70589;BME280;58152;49.202;18.744;2023-12-14T10:42:36;96646.28;;;3.80;84.30
70589;BME280;58152;49.202;18.744;2023-12-14T10:45:02;96650.47;;;3.85;84.47
70589;BME280;58152;49.202;18.744;2023-12-14T10:47:29;96655.56;;;3.88;84.08
70589;BME280;58152;49.202;18.744;2023-12-14T10:49:54;96657.38;;;3.86;84.77
70589;BME280;58152;49.202;18.744;2023-12-14T10:52:22;96650.34;;;3.89;84.39
70589;BME280;58152;49.202;18.744;2023-12-14T10:54:52;96657.09;;;3.95;84.33
70589;BME280;58152;49.202;18.744;2023-12-14T10:57:19;96658.78;;;3.96;84.65
70589;BME280;58152;49.202;18.744;2023-12-14T10:59:49;96664.78;;;3.98;84.16
70589;BME280;58152;49.202;18.744;2023-12-14T11:02:19;96668.28;;;3.97;84.14
70589;BME280;58152;49.202;18.744;2023-12-14T11:05:00;96680.31;;;3.99;84.02
70589;BME280;58152;49.202;18.744;2023-12-14T11:14:29;96683.84;;;3.97;84.33
70589;BME280;58152;49.202;18.744;2023-12-14T11:16:56;96689.88;;;3.99;83.97
70589;BME280;58152;49.202;18.744;2023-12-14T11:24:22;96691.94;;;4.16;84.48
70589;BME280;58152;49.202;18.744;2023-12-14T11:26:51;96696.06;;;4.23;84.79
70589;BME280;58152;49.202;18.744;2023-12-14T11:29:19;96695.91;;;4.27;84.70
70589;BME280;58152;49.202;18.744;2023-12-14T11:31:46;96693.34;;;4.26;84.49
70589;BME280;58152;49.202;18.744;2023-12-14T11:34:11;96697.59;;;4.28;84.60
70589;BME280;58152;49.202;18.744;2023-12-14T11:36:37;96697.56;;;4.30;84.56
70589;BME280;58152;49.202;18.744;2023-12-14T11:39:07;96701.91;;;4.29;84.17
70589;BME280;58152;49.202;18.744;2023-12-14T11:41:34;96699.31;;;4.29;84.16
70589;BME280;58152;49.202;18.744;2023-12-14T11:44:00;96713.97;;;4.30;84.21
70589;BME280;58152;49.202;18.744;2023-12-14T11:46:26;96713.94;;;4.32;84.62
70589;BME280;58152;49.202;18.744;2023-12-14T11:48:51;96712.19;;;4.32;84.56
70589;BME280;58152;49.202;18.744;2023-12-14T11:51:18;96720.91;;;4.31;84.04
70589;BME280;58152;49.202;18.744;2023-12-14T11:53:47;96721.78;;;4.30;84.33
70589;BME280;58152;49.202;18.744;2023-12-14T11:56:19;96720.06;;;4.29;84.10
70589;BME280;58152;49.202;18.744;2023-12-14T11:58:54;96729.63;;;4.29;84.23
70589;BME280;58152;49.202;18.744;2023-12-14T12:01:20;96728.78;;;4.28;84.20
70589;BME280;58152;49.202;18.744;2023-12-14T12:03:51;96729.69;;;4.27;84.59
70589;BME280;58152;49.202;18.744;2023-12-14T12:06:26;96733.06;;;4.29;84.75
70589;BME280;58152;49.202;18.744;2023-12-14T12:08:55;96732.22;;;4.29;84.61
70589;BME280;58152;49.202;18.744;2023-12-14T12:11:22;96736.47;;;4.31;84.69
70589;BME280;58152;49.202;18.744;2023-12-14T12:13:52;96741.63;;;4.33;84.68
70589;BME280;58152;49.202;18.744;2023-12-14T12:16:18;96745.00;;;4.35;84.68
70589;BME280;58152;49.202;18.744;2023-12-14T12:18:44;96744.13;;;4.36;84.65
70589;BME280;58152;49.202;18.744;2023-12-14T12:21:11;96748.41;;;4.37;84.45
70589;BME280;58152;49.202;18.744;2023-12-14T12:23:36;96753.53;;;4.40;84.54
70589;BME280;58152;49.202;18.744;2023-12-14T12:26:02;96744.00;;;4.39;84.47
70589;BME280;58152;49.202;18.744;2023-12-14T12:28:30;96746.59;;;4.41;84.88
70589;BME280;58152;49.202;18.744;2023-12-14T12:30:55;96756.06;;;4.42;85.18
70589;BME280;58152;49.202;18.744;2023-12-14T12:33:20;96755.22;;;4.41;84.70
70589;BME280;58152;49.202;18.744;2023-12-14T12:35:46;96755.22;;;4.41;84.66
70589;BME280;58152;49.202;18.744;2023-12-14T12:38:11;96764.72;;;4.42;84.70
70589;BME280;58152;49.202;18.744;2023-12-14T12:40:37;96770.75;;;4.43;84.59
70589;BME280;58152;49.202;18.744;2023-12-14T12:43:03;96774.19;;;4.43;84.45
70589;BME280;58152;49.202;18.744;2023-12-14T12:45:29;96781.06;;;4.46;84.80
70589;BME280;58152;49.202;18.744;2023-12-14T12:47:55;96779.38;;;4.45;84.73
70589;BME280;58152;49.202;18.744;2023-12-14T12:50:20;96790.59;;;4.45;84.42
70589;BME280;58152;49.202;18.744;2023-12-14T12:52:46;96785.44;;;4.44;84.59
70589;BME280;58152;49.202;18.744;2023-12-14T12:55:14;96791.44;;;4.46;84.83
70589;BME280;58152;49.202;18.744;2023-12-14T12:57:40;96798.41;;;4.45;84.79
70589;BME280;58152;49.202;18.744;2023-12-14T13:00:07;96797.63;;;4.42;84.95
70589;BME280;58152;49.202;18.744;2023-12-14T13:02:37;96803.63;;;4.44;85.10
70589;BME280;58152;49.202;18.744;2023-12-14T13:05:05;96797.56;;;4.45;84.75
70589;BME280;58152;49.202;18.744;2023-12-14T13:07:31;96806.13;;;4.47;84.81
70589;BME280;58152;49.202;18.744;2023-12-14T13:09:56;96812.88;;;4.52;85.52
70589;BME280;58152;49.202;18.744;2023-12-14T13:12:22;96809.31;;;4.56;85.58
70589;BME280;58152;49.202;18.744;2023-12-14T13:14:47;96812.72;;;4.58;85.04